sensor_id;sensor_type;location;lat;lon;timestamp;temperature;humidity
54126;DHT22;40360;52.992;6.796;2023-07-02T00:01:03;15.80;99.90
54126;DHT22;40360;52.992;6.796;2023-07-02T00:03:29;15.80;99.90
54126;DHT22;40360;52.992;6.796;2023-07-02T00:05:55;15.70;99.90
54126;DHT22;40360;52.992;6.796;2023-07-02T00:08:22;15.70;99.90
54126;DHT22;40360;52.992;6.796;2023-07-02T00:10:48;15.70;99.90
54126;DHT22;40360;52.992;6.796;2023-07-02T00:13:14;15.70;99.90
54126;DHT22;40360;52.992;6.796;2023-07-02T00:15:40;15.60;99.90
54126;DHT22;40360;52.992;6.796;2023-07-02T00:18:07;15.60;99.90
54126;DHT22;40360;52.992;6.796;2023-07-02T00:20:33;15.70;99.90
54126;DHT22;40360;52.992;6.796;2023-07-02T00:23:05;15.60;99.90
54126;DHT22;40360;52.992;6.796;2023-07-02T00:25:34;15.60;99.90
54126;DHT22;40360;52.992;6.796;2023-07-02T00:28:00;15.60;99.90
54126;DHT22;40360;52.992;6.796;2023-07-02T00:30:25;15.60;99.90
54126;DHT22;40360;52.992;6.796;2023-07-02T00:32:51;15.60;99.90
54126;DHT22;40360;52.992;6.796;2023-07-02T00:35:16;15.60;99.90
54126;DHT22;40360;52.992;6.796;2023-07-02T00:37:42;15.60;99.90
54126;DHT22;40360;52.992;6.796;2023-07-02T00:40:08;15.60;99.90
54126;DHT22;40360;52.992;6.796;2023-07-02T00:42:34;15.60;99.90
54126;DHT22;40360;52.992;6.796;2023-07-02T00:44:59;15.60;99.90
54126;DHT22;40360;52.992;6.796;2023-07-02T00:47:34;15.50;99.90
54126;DHT22;40360;52.992;6.796;2023-07-02T00:50:01;15.40;99.90
54126;DHT22;40360;52.992;6.796;2023-07-02T00:52:27;15.40;99.90
54126;DHT22;40360;52.992;6.796;2023-07-02T00:54:53;15.40;99.90
54126;DHT22;40360;52.992;6.796;2023-07-02T00:57:19;15.30;99.90
54126;DHT22;40360;52.992;6.796;2023-07-02T00:59:44;15.30;99.90
54126;DHT22;40360;52.992;6.796;2023-07-02T01:02:10;15.20;99.90
54126;DHT22;40360;52.992;6.796;2023-07-02T01:04:38;15.10;99.90
54126;DHT22;40360;52.992;6.796;2023-07-02T01:07:04;15.10;99.90
54126;DHT22;40360;52.992;6.796;2023-07-02T01:09:34;15.00;99.90
54126;DHT22;40360;52.992;6.796;2023-07-02T01:12:03;15.00;99.90
54126;DHT22;40360;52.992;6.796;2023-07-02T01:14:36;14.90;99.90
54126;DHT22;40360;52.992;6.796;2023-07-02T01:17:03;14.90;99.90
54126;DHT22;40360;52.992;6.796;2023-07-02T01:19:49;14.70;99.90
54126;DHT22;40360;52.992;6.796;2023-07-02T01:22:18;14.60;99.90
54126;DHT22;40360;52.992;6.796;2023-07-02T01:24:45;14.60;99.90
54126;DHT22;40360;52.992;6.796;2023-07-02T01:27:15;14.50;99.90
54126;DHT22;40360;52.992;6.796;2023-07-02T01:29:41;14.40;99.90
54126;DHT22;40360;52.992;6.796;2023-07-02T01:32:07;14.30;99.90
54126;DHT22;40360;52.992;6.796;2023-07-02T01:34:36;14.30;99.90
54126;DHT22;40360;52.992;6.796;2023-07-02T01:37:03;14.20;99.90
54126;DHT22;40360;52.992;6.796;2023-07-02T01:39:29;14.20;99.90
54126;DHT22;40360;52.992;6.796;2023-07-02T01:42:10;14.20;99.90
54126;DHT22;40360;52.992;6.796;2023-07-02T01:44:36;14.20;99.90
54126;DHT22;40360;52.992;6.796;2023-07-02T01:47:05;14.20;99.90
54126;DHT22;40360;52.992;6.796;2023-07-02T01:49:31;14.10;99.90
54126;DHT22;40360;52.992;6.796;2023-07-02T01:51:57;14.00;99.90
54126;DHT22;40360;52.992;6.796;2023-07-02T01:54:25;14.10;99.90
54126;DHT22;40360;52.992;6.796;2023-07-02T01:56:55;14.10;99.90
54126;DHT22;40360;52.992;6.796;2023-07-02T01:59:21;13.90;99.90
54126;DHT22;40360;52.992;6.796;2023-07-02T02:01:46;14.00;99.90
54126;DHT22;40360;52.992;6.796;2023-07-02T02:04:12;14.00;99.90
54126;DHT22;40360;52.992;6.796;2023-07-02T02:06:39;14.10;99.90
54126;DHT22;40360;52.992;6.796;2023-07-02T02:09:05;14.00;99.90
54126;DHT22;40360;52.992;6.796;2023-07-02T02:11:32;14.00;99.90
54126;DHT22;40360;52.992;6.796;2023-07-02T02:13:58;13.90;99.90
54126;DHT22;40360;52.992;6.796;2023-07-02T02:16:25;13.90;99.90
54126;DHT22;40360;52.992;6.796;2023-07-02T02:18:50;13.90;99.90
54126;DHT22;40360;52.992;6.796;2023-07-02T02:21:18;13.90;99.90
54126;DHT22;40360;52.992;6.796;2023-07-02T02:23:43;13.80;99.90
54126;DHT22;40360;52.992;6.796;2023-07-02T02:26:09;13.80;99.90
54126;DHT22;40360;52.992;6.796;2023-07-02T02:28:35;13.70;99.90
54126;DHT22;40360;52.992;6.796;2023-07-02T02:31:01;13.70;99.90
54126;DHT22;40360;52.992;6.796;2023-07-02T02:33:26;13.70;99.90
54126;DHT22;40360;52.992;6.796;2023-07-02T02:35:52;13.60;99.90
54126;DHT22;40360;52.992;6.796;2023-07-02T02:38:18;13.60;99.90
54126;DHT22;40360;52.992;6.796;2023-07-02T02:40:43;13.60;99.90
54126;DHT22;40360;52.992;6.796;2023-07-02T02:43:09;13.60;99.90
54126;DHT22;40360;52.992;6.796;2023-07-02T02:45:35;13.60;99.90
54126;DHT22;40360;52.992;6.796;2023-07-02T02:48:00;13.60;99.90
54126;DHT22;40360;52.992;6.796;2023-07-02T02:50:26;13.60;99.90
54126;DHT22;40360;52.992;6.796;2023-07-02T02:52:52;13.60;99.90
54126;DHT22;40360;52.992;6.796;2023-07-02T02:55:18;13.60;99.90
54126;DHT22;40360;52.992;6.796;2023-07-02T02:57:44;13.60;99.90
54126;DHT22;40360;52.992;6.796;2023-07-02T03:00:10;13.40;99.90
54126;DHT22;40360;52.992;6.796;2023-07-02T03:02:37;13.40;99.90
54126;DHT22;40360;52.992;6.796;2023-07-02T03:05:03;13.40;99.90
54126;DHT22;40360;52.992;6.796;2023-07-02T03:07:29;13.40;99.90
54126;DHT22;40360;52.992;6.796;2023-07-02T03:09:55;13.40;99.90
54126;DHT22;40360;52.992;6.796;2023-07-02T03:12:21;13.30;99.90
54126;DHT22;40360;52.992;6.796;2023-07-02T03:14:48;13.30;99.90
54126;DHT22;40360;52.992;6.796;2023-07-02T03:17:19;13.30;99.90
54126;DHT22;40360;52.992;6.796;2023-07-02T03:19:44;13.30;99.90
54126;DHT22;40360;52.992;6.796;2023-07-02T03:22:10;13.30;99.90
54126;DHT22;40360;52.992;6.796;2023-07-02T03:24:36;13.30;99.90
54126;DHT22;40360;52.992;6.796;2023-07-02T03:27:02;13.30;99.90
54126;DHT22;40360;52.992;6.796;2023-07-02T03:29:27;13.30;99.90
54126;DHT22;40360;52.992;6.796;2023-07-02T03:31:53;13.30;99.90
54126;DHT22;40360;52.992;6.796;2023-07-02T03:34:19;13.30;99.90
54126;DHT22;40360;52.992;6.796;2023-07-02T03:36:44;13.30;99.90
54126;DHT22;40360;52.992;6.796;2023-07-02T03:39:10;13.20;99.90
54126;DHT22;40360;52.992;6.796;2023-07-02T03:41:36;13.30;99.90
54126;DHT22;40360;52.992;6.796;2023-07-02T03:44:01;13.30;99.90
54126;DHT22;40360;52.992;6.796;2023-07-02T03:46:27;13.30;99.90
54126;DHT22;40360;52.992;6.796;2023-07-02T03:48:52;13.20;99.90
54126;DHT22;40360;52.992;6.796;2023-07-02T03:51:18;13.20;99.90
54126;DHT22;40360;52.992;6.796;2023-07-02T03:53:44;13.20;99.90
54126;DHT22;40360;52.992;6.796;2023-07-02T03:56:09;13.30;99.90
54126;DHT22;40360;52.992;6.796;2023-07-02T03:58:35;13.30;99.90
54126;DHT22;40360;52.992;6.796;2023-07-02T04:01:01;13.30;99.90
54126;DHT22;40360;52.992;6.796;2023-07-02T04:03:26;13.30;99.90
54126;DHT22;40360;52.992;6.796;2023-07-02T04:05:52;13.40;99.90
54126;DHT22;40360;52.992;6.796;2023-07-02T04:08:18;13.40;99.90
54126;DHT22;40360;52.992;6.796;2023-07-02T04:10:46;13.50;99.90
54126;DHT22;40360;52.992;6.796;2023-07-02T04:13:12;13.60;99.90
54126;DHT22;40360;52.992;6.796;2023-07-02T04:15:37;13.60;99.90
54126;DHT22;40360;52.992;6.796;2023-07-02T04:18:03;13.70;99.90
54126;DHT22;40360;52.992;6.796;2023-07-02T04:20:29;13.70;99.90
54126;DHT22;40360;52.992;6.796;2023-07-02T04:22:54;13.80;99.90
54126;DHT22;40360;52.992;6.796;2023-07-02T04:25:20;13.90;99.90
54126;DHT22;40360;52.992;6.796;2023-07-02T04:27:46;13.90;99.90
54126;DHT22;40360;52.992;6.796;2023-07-02T04:30:12;14.00;99.90
54126;DHT22;40360;52.992;6.796;2023-07-02T04:32:38;14.00;99.90
54126;DHT22;40360;52.992;6.796;2023-07-02T04:35:07;14.10;99.90
54126;DHT22;40360;52.992;6.796;2023-07-02T04:37:33;14.10;99.90
54126;DHT22;40360;52.992;6.796;2023-07-02T04:39:59;14.10;99.90
54126;DHT22;40360;52.992;6.796;2023-07-02T04:42:26;14.20;99.90
54126;DHT22;40360;52.992;6.796;2023-07-02T04:44:56;14.20;99.90
54126;DHT22;40360;52.992;6.796;2023-07-02T04:47:21;14.20;99.90
54126;DHT22;40360;52.992;6.796;2023-07-02T04:49:47;14.40;99.90
54126;DHT22;40360;52.992;6.796;2023-07-02T04:52:13;14.30;99.90
54126;DHT22;40360;52.992;6.796;2023-07-02T04:54:38;14.30;99.90
54126;DHT22;40360;52.992;6.796;2023-07-02T04:57:04;14.30;99.90
54126;DHT22;40360;52.992;6.796;2023-07-02T04:59:30;14.40;99.90
54126;DHT22;40360;52.992;6.796;2023-07-02T05:01:55;14.50;99.90
54126;DHT22;40360;52.992;6.796;2023-07-02T05:04:21;14.60;99.90
54126;DHT22;40360;52.992;6.796;2023-07-02T05:06:47;14.60;99.90
54126;DHT22;40360;52.992;6.796;2023-07-02T05:09:12;14.70;99.90
54126;DHT22;40360;52.992;6.796;2023-07-02T05:11:38;14.70;99.90
54126;DHT22;40360;52.992;6.796;2023-07-02T05:14:04;14.80;99.90
54126;DHT22;40360;52.992;6.796;2023-07-02T05:16:29;14.80;99.90
54126;DHT22;40360;52.992;6.796;2023-07-02T05:18:55;14.90;99.90
54126;DHT22;40360;52.992;6.796;2023-07-02T05:21:20;14.90;99.90
54126;DHT22;40360;52.992;6.796;2023-07-02T05:23:47;14.90;99.90
54126;DHT22;40360;52.992;6.796;2023-07-02T05:26:13;14.90;99.90
54126;DHT22;40360;52.992;6.796;2023-07-02T05:28:38;15.00;99.90
54126;DHT22;40360;52.992;6.796;2023-07-02T05:31:04;15.10;99.90
54126;DHT22;40360;52.992;6.796;2023-07-02T05:33:29;15.10;99.90
54126;DHT22;40360;52.992;6.796;2023-07-02T05:35:57;15.10;99.90
54126;DHT22;40360;52.992;6.796;2023-07-02T05:38:23;15.20;99.90
54126;DHT22;40360;52.992;6.796;2023-07-02T05:40:49;15.30;99.90
54126;DHT22;40360;52.992;6.796;2023-07-02T06:01:24;17.00;99.90
54126;DHT22;40360;52.992;6.796;2023-07-02T06:03:50;15.80;99.90
54126;DHT22;40360;52.992;6.796;2023-07-02T06:06:16;15.90;99.90
54126;DHT22;40360;52.992;6.796;2023-07-02T06:08:41;16.00;99.90
54126;DHT22;40360;52.992;6.796;2023-07-02T06:11:09;16.10;99.90
54126;DHT22;40360;52.992;6.796;2023-07-02T06:13:34;16.20;99.90
54126;DHT22;40360;52.992;6.796;2023-07-02T06:16:00;17.20;99.90
54126;DHT22;40360;52.992;6.796;2023-07-02T06:18:25;16.30;99.90
54126;DHT22;40360;52.992;6.796;2023-07-02T06:20:51;16.30;99.90
54126;DHT22;40360;52.992;6.796;2023-07-02T06:23:16;16.40;99.90
54126;DHT22;40360;52.992;6.796;2023-07-02T06:25:42;16.40;99.90
54126;DHT22;40360;52.992;6.796;2023-07-02T06:28:09;16.40;99.90
54126;DHT22;40360;52.992;6.796;2023-07-02T06:30:34;16.40;99.90
54126;DHT22;40360;52.992;6.796;2023-07-02T06:33:00;16.40;99.90
54126;DHT22;40360;52.992;6.796;2023-07-02T06:35:26;16.40;99.90
54126;DHT22;40360;52.992;6.796;2023-07-02T06:37:51;16.50;99.90
54126;DHT22;40360;52.992;6.796;2023-07-02T06:40:17;16.60;99.90
54126;DHT22;40360;52.992;6.796;2023-07-02T06:42:42;16.70;99.90
54126;DHT22;40360;52.992;6.796;2023-07-02T06:45:08;16.80;99.90
54126;DHT22;40360;52.992;6.796;2023-07-02T06:47:34;17.00;99.90
54126;DHT22;40360;52.992;6.796;2023-07-02T06:50:00;17.00;99.90
54126;DHT22;40360;52.992;6.796;2023-07-02T06:52:25;17.10;99.90
54126;DHT22;40360;52.992;6.796;2023-07-02T06:54:51;17.20;99.90
54126;DHT22;40360;52.992;6.796;2023-07-02T06:57:17;17.30;99.90
54126;DHT22;40360;52.992;6.796;2023-07-02T06:59:42;17.30;99.90
54126;DHT22;40360;52.992;6.796;2023-07-02T07:02:08;17.40;99.90
54126;DHT22;40360;52.992;6.796;2023-07-02T07:04:34;17.50;99.90
54126;DHT22;40360;52.992;6.796;2023-07-02T07:07:03;17.60;99.90
54126;DHT22;40360;52.992;6.796;2023-07-02T07:09:29;17.70;99.90
54126;DHT22;40360;52.992;6.796;2023-07-02T07:11:55;17.80;99.90
54126;DHT22;40360;52.992;6.796;2023-07-02T07:14:21;17.80;99.90
54126;DHT22;40360;52.992;6.796;2023-07-02T07:16:46;17.80;99.90
54126;DHT22;40360;52.992;6.796;2023-07-02T07:19:12;17.70;99.90
54126;DHT22;40360;52.992;6.796;2023-07-02T07:21:38;17.60;99.90
54126;DHT22;40360;52.992;6.796;2023-07-02T07:24:04;17.50;99.90
54126;DHT22;40360;52.992;6.796;2023-07-02T07:26:29;17.50;99.90
54126;DHT22;40360;52.992;6.796;2023-07-02T07:28:55;17.40;99.90
54126;DHT22;40360;52.992;6.796;2023-07-02T07:31:21;17.40;99.90
54126;DHT22;40360;52.992;6.796;2023-07-02T07:33:47;17.50;99.90
54126;DHT22;40360;52.992;6.796;2023-07-02T07:36:12;17.60;99.90
54126;DHT22;40360;52.992;6.796;2023-07-02T07:38:39;17.70;99.90
54126;DHT22;40360;52.992;6.796;2023-07-02T07:41:05;17.80;99.90
54126;DHT22;40360;52.992;6.796;2023-07-02T07:43:30;17.70;99.90
54126;DHT22;40360;52.992;6.796;2023-07-02T07:45:56;17.50;99.90
54126;DHT22;40360;52.992;6.796;2023-07-02T07:48:22;17.40;99.90
54126;DHT22;40360;52.992;6.796;2023-07-02T07:50:47;17.50;99.90
54126;DHT22;40360;52.992;6.796;2023-07-02T07:53:13;17.80;99.90
54126;DHT22;40360;52.992;6.796;2023-07-02T07:55:39;18.00;99.90
54126;DHT22;40360;52.992;6.796;2023-07-02T07:58:04;18.10;99.90
54126;DHT22;40360;52.992;6.796;2023-07-02T08:00:30;18.10;99.90
54126;DHT22;40360;52.992;6.796;2023-07-02T08:02:55;18.10;99.90
54126;DHT22;40360;52.992;6.796;2023-07-02T08:05:22;18.00;99.90
54126;DHT22;40360;52.992;6.796;2023-07-02T08:07:48;18.00;99.90
54126;DHT22;40360;52.992;6.796;2023-07-02T08:10:14;17.80;99.90
54126;DHT22;40360;52.992;6.796;2023-07-02T08:12:39;17.80;99.90
54126;DHT22;40360;52.992;6.796;2023-07-02T08:15:05;17.60;99.90
54126;DHT22;40360;52.992;6.796;2023-07-02T08:17:31;17.50;99.90
54126;DHT22;40360;52.992;6.796;2023-07-02T08:19:57;17.40;99.90
54126;DHT22;40360;52.992;6.796;2023-07-02T08:22:23;17.30;99.90
54126;DHT22;40360;52.992;6.796;2023-07-02T08:24:49;17.30;99.90
54126;DHT22;40360;52.992;6.796;2023-07-02T08:27:15;17.50;99.90
54126;DHT22;40360;52.992;6.796;2023-07-02T08:29:45;17.70;99.90
54126;DHT22;40360;52.992;6.796;2023-07-02T08:32:10;18.10;99.90
54126;DHT22;40360;52.992;6.796;2023-07-02T08:34:36;18.40;99.90
54126;DHT22;40360;52.992;6.796;2023-07-02T08:37:01;18.50;99.90
54126;DHT22;40360;52.992;6.796;2023-07-02T08:39:27;18.30;99.90
54126;DHT22;40360;52.992;6.796;2023-07-02T08:41:53;18.10;99.90
54126;DHT22;40360;52.992;6.796;2023-07-02T08:44:20;17.90;99.90
54126;DHT22;40360;52.992;6.796;2023-07-02T08:46:46;18.00;99.90
54126;DHT22;40360;52.992;6.796;2023-07-02T08:49:16;18.00;99.90
54126;DHT22;40360;52.992;6.796;2023-07-02T08:51:47;18.00;99.90
54126;DHT22;40360;52.992;6.796;2023-07-02T08:54:13;17.90;99.90
54126;DHT22;40360;52.992;6.796;2023-07-02T08:56:39;17.80;99.90
54126;DHT22;40360;52.992;6.796;2023-07-02T08:59:09;17.80;99.90
54126;DHT22;40360;52.992;6.796;2023-07-02T09:01:48;17.70;99.90
54126;DHT22;40360;52.992;6.796;2023-07-02T09:04:24;17.70;99.90
54126;DHT22;40360;52.992;6.796;2023-07-02T09:07:06;17.50;99.90
54126;DHT22;40360;52.992;6.796;2023-07-02T09:09:33;17.70;99.90
54126;DHT22;40360;52.992;6.796;2023-07-02T09:11:59;18.00;99.90
54126;DHT22;40360;52.992;6.796;2023-07-02T09:14:26;18.30;99.90
54126;DHT22;40360;52.992;6.796;2023-07-02T09:17:08;18.60;99.90
54126;DHT22;40360;52.992;6.796;2023-07-02T09:19:35;18.50;99.90
54126;DHT22;40360;52.992;6.796;2023-07-02T09:22:02;18.30;99.90
54126;DHT22;40360;52.992;6.796;2023-07-02T09:24:30;18.10;99.90
54126;DHT22;40360;52.992;6.796;2023-07-02T09:27:01;18.10;99.90
54126;DHT22;40360;52.992;6.796;2023-07-02T09:29:28;18.10;99.90
54126;DHT22;40360;52.992;6.796;2023-07-02T09:31:57;18.10;99.90
54126;DHT22;40360;52.992;6.796;2023-07-02T09:34:34;18.10;99.90
54126;DHT22;40360;52.992;6.796;2023-07-02T09:37:01;18.10;99.90
54126;DHT22;40360;52.992;6.796;2023-07-02T09:39:31;18.00;99.90
54126;DHT22;40360;52.992;6.796;2023-07-02T09:41:58;17.80;99.90
54126;DHT22;40360;52.992;6.796;2023-07-02T09:44:34;17.80;99.90
54126;DHT22;40360;52.992;6.796;2023-07-02T09:47:04;17.60;99.90
54126;DHT22;40360;52.992;6.796;2023-07-02T09:49:42;17.50;99.90
54126;DHT22;40360;52.992;6.796;2023-07-02T09:52:10;17.60;99.90
54126;DHT22;40360;52.992;6.796;2023-07-02T09:54:37;17.60;99.90
54126;DHT22;40360;52.992;6.796;2023-07-02T09:57:04;17.50;99.90
54126;DHT22;40360;52.992;6.796;2023-07-02T09:59:29;17.60;99.90
54126;DHT22;40360;52.992;6.796;2023-07-02T10:01:56;17.60;99.90
54126;DHT22;40360;52.992;6.796;2023-07-02T10:04:23;17.80;99.90
54126;DHT22;40360;52.992;6.796;2023-07-02T10:09:16;18.30;99.90
54126;DHT22;40360;52.992;6.796;2023-07-02T10:11:42;18.40;99.90
54126;DHT22;40360;52.992;6.796;2023-07-02T10:14:08;18.70;99.90
54126;DHT22;40360;52.992;6.796;2023-07-02T10:16:34;18.80;99.90
54126;DHT22;40360;52.992;6.796;2023-07-02T10:19:12;18.80;99.90
54126;DHT22;40360;52.992;6.796;2023-07-02T10:21:38;18.80;99.90
54126;DHT22;40360;52.992;6.796;2023-07-02T10:24:14;19.00;99.90
54126;DHT22;40360;52.992;6.796;2023-07-02T10:26:58;19.10;99.90
54126;DHT22;40360;52.992;6.796;2023-07-02T10:29:25;19.00;99.90
54126;DHT22;40360;52.992;6.796;2023-07-02T10:31:52;18.80;99.90
54126;DHT22;40360;52.992;6.796;2023-07-02T10:34:31;18.70;99.90
54126;DHT22;40360;52.992;6.796;2023-07-02T10:36:57;18.80;99.90
54126;DHT22;40360;52.992;6.796;2023-07-02T10:39:23;18.90;99.90
54126;DHT22;40360;52.992;6.796;2023-07-02T10:41:49;19.00;99.90
54126;DHT22;40360;52.992;6.796;2023-07-02T10:44:15;19.00;99.90
54126;DHT22;40360;52.992;6.796;2023-07-02T10:46:45;18.80;99.90
54126;DHT22;40360;52.992;6.796;2023-07-02T10:49:11;18.60;99.90
54126;DHT22;40360;52.992;6.796;2023-07-02T10:51:38;18.50;99.90
54126;DHT22;40360;52.992;6.796;2023-07-02T10:54:03;18.30;99.90
54126;DHT22;40360;52.992;6.796;2023-07-02T10:56:30;18.50;99.90
54126;DHT22;40360;52.992;6.796;2023-07-02T10:58:56;18.90;99.90
54126;DHT22;40360;52.992;6.796;2023-07-02T11:01:30;19.40;99.90
54126;DHT22;40360;52.992;6.796;2023-07-02T11:03:57;20.00;99.90
54126;DHT22;40360;52.992;6.796;2023-07-02T11:06:24;20.20;99.90
54126;DHT22;40360;52.992;6.796;2023-07-02T11:08:50;20.20;99.90
54126;DHT22;40360;52.992;6.796;2023-07-02T11:11:15;20.10;99.90
54126;DHT22;40360;52.992;6.796;2023-07-02T11:13:48;20.30;99.90
54126;DHT22;40360;52.992;6.796;2023-07-02T11:16:23;20.50;99.90
54126;DHT22;40360;52.992;6.796;2023-07-02T11:19:06;20.30;99.90
54126;DHT22;40360;52.992;6.796;2023-07-02T11:21:33;19.90;99.90
54126;DHT22;40360;52.992;6.796;2023-07-02T11:24:06;19.70;99.90
54126;DHT22;40360;52.992;6.796;2023-07-02T11:26:40;19.60;99.90
54126;DHT22;40360;52.992;6.796;2023-07-02T11:29:12;19.80;99.90
54126;DHT22;40360;52.992;6.796;2023-07-02T11:31:43;20.00;99.90
54126;DHT22;40360;52.992;6.796;2023-07-02T11:34:16;20.10;99.90
54126;DHT22;40360;52.992;6.796;2023-07-02T11:36:42;20.10;99.90
54126;DHT22;40360;52.992;6.796;2023-07-02T11:39:08;20.40;99.90
54126;DHT22;40360;52.992;6.796;2023-07-02T11:41:40;20.20;99.90
54126;DHT22;40360;52.992;6.796;2023-07-02T11:44:07;19.70;99.90
54126;DHT22;40360;52.992;6.796;2023-07-02T11:46:32;19.70;99.90
54126;DHT22;40360;52.992;6.796;2023-07-02T11:49:00;19.50;99.90
54126;DHT22;40360;52.992;6.796;2023-07-02T11:51:26;19.50;99.90
54126;DHT22;40360;52.992;6.796;2023-07-02T11:53:52;19.50;99.90
54126;DHT22;40360;52.992;6.796;2023-07-02T11:56:17;19.60;99.90
54126;DHT22;40360;52.992;6.796;2023-07-02T11:58:43;19.80;99.90
54126;DHT22;40360;52.992;6.796;2023-07-02T12:01:08;19.80;99.90
54126;DHT22;40360;52.992;6.796;2023-07-02T12:03:34;19.60;99.90
54126;DHT22;40360;52.992;6.796;2023-07-02T12:06:00;19.40;99.90
54126;DHT22;40360;52.992;6.796;2023-07-02T12:08:25;19.20;99.90
54126;DHT22;40360;52.992;6.796;2023-07-02T12:10:51;19.10;99.90
54126;DHT22;40360;52.992;6.796;2023-07-02T12:13:17;19.10;99.90
54126;DHT22;40360;52.992;6.796;2023-07-02T12:15:43;19.10;99.90
54126;DHT22;40360;52.992;6.796;2023-07-02T12:18:09;19.10;99.90
54126;DHT22;40360;52.992;6.796;2023-07-02T12:20:35;19.40;99.90
54126;DHT22;40360;52.992;6.796;2023-07-02T12:23:00;19.80;99.90
54126;DHT22;40360;52.992;6.796;2023-07-02T12:25:26;20.00;99.90
54126;DHT22;40360;52.992;6.796;2023-07-02T12:27:52;20.30;99.90
54126;DHT22;40360;52.992;6.796;2023-07-02T12:30:18;20.60;99.90
54126;DHT22;40360;52.992;6.796;2023-07-02T12:32:44;20.70;99.90
54126;DHT22;40360;52.992;6.796;2023-07-02T12:35:11;20.50;99.90
54126;DHT22;40360;52.992;6.796;2023-07-02T12:37:44;20.40;99.90
54126;DHT22;40360;52.992;6.796;2023-07-02T12:40:10;20.10;99.90
54126;DHT22;40360;52.992;6.796;2023-07-02T12:42:36;20.00;99.90
54126;DHT22;40360;52.992;6.796;2023-07-02T12:45:01;20.00;99.90
54126;DHT22;40360;52.992;6.796;2023-07-02T12:47:27;20.00;99.90
54126;DHT22;40360;52.992;6.796;2023-07-02T12:49:53;19.90;99.90
54126;DHT22;40360;52.992;6.796;2023-07-02T12:52:18;19.60;99.90
54126;DHT22;40360;52.992;6.796;2023-07-02T12:54:44;19.50;99.90
54126;DHT22;40360;52.992;6.796;2023-07-02T12:57:10;19.40;99.90
54126;DHT22;40360;52.992;6.796;2023-07-02T12:59:35;19.40;99.90
54126;DHT22;40360;52.992;6.796;2023-07-02T13:02:01;19.40;99.90
54126;DHT22;40360;52.992;6.796;2023-07-02T13:04:27;19.30;99.90
54126;DHT22;40360;52.992;6.796;2023-07-02T13:06:52;19.30;99.90
54126;DHT22;40360;52.992;6.796;2023-07-02T13:09:18;19.30;99.90
54126;DHT22;40360;52.992;6.796;2023-07-02T13:11:43;19.40;99.90
54126;DHT22;40360;52.992;6.796;2023-07-02T13:14:09;19.60;99.90
54126;DHT22;40360;52.992;6.796;2023-07-02T13:16:35;19.60;99.90
54126;DHT22;40360;52.992;6.796;2023-07-02T13:19:01;19.80;99.90
54126;DHT22;40360;52.992;6.796;2023-07-02T13:21:28;19.80;99.90
54126;DHT22;40360;52.992;6.796;2023-07-02T13:23:53;19.70;99.90
54126;DHT22;40360;52.992;6.796;2023-07-02T13:26:19;19.60;99.90
54126;DHT22;40360;52.992;6.796;2023-07-02T13:28:45;19.50;99.90
54126;DHT22;40360;52.992;6.796;2023-07-02T13:31:13;19.50;99.90
54126;DHT22;40360;52.992;6.796;2023-07-02T13:33:39;19.30;99.90
54126;DHT22;40360;52.992;6.796;2023-07-02T13:36:05;19.00;99.90
54126;DHT22;40360;52.992;6.796;2023-07-02T13:38:31;19.00;99.90
54126;DHT22;40360;52.992;6.796;2023-07-02T13:40:57;19.00;99.90
54126;DHT22;40360;52.992;6.796;2023-07-02T13:43:22;18.90;99.90
54126;DHT22;40360;52.992;6.796;2023-07-02T13:45:48;18.90;99.90
54126;DHT22;40360;52.992;6.796;2023-07-02T13:48:14;19.20;99.90
54126;DHT22;40360;52.992;6.796;2023-07-02T13:50:39;19.20;99.90
54126;DHT22;40360;52.992;6.796;2023-07-02T13:53:05;19.20;99.90
54126;DHT22;40360;52.992;6.796;2023-07-02T13:55:30;19.40;99.90
54126;DHT22;40360;52.992;6.796;2023-07-02T13:57:57;19.80;99.90
54126;DHT22;40360;52.992;6.796;2023-07-02T14:00:26;19.90;98.70
54126;DHT22;40360;52.992;6.796;2023-07-02T14:02:52;20.10;98.80
54126;DHT22;40360;52.992;6.796;2023-07-02T14:05:18;20.40;98.70
54126;DHT22;40360;52.992;6.796;2023-07-02T14:07:43;20.80;98.60
54126;DHT22;40360;52.992;6.796;2023-07-02T14:10:10;20.90;97.40
54126;DHT22;40360;52.992;6.796;2023-07-02T14:12:38;21.00;97.80
54126;DHT22;40360;52.992;6.796;2023-07-02T14:15:04;21.00;97.20
54126;DHT22;40360;52.992;6.796;2023-07-02T14:17:29;21.20;98.00
54126;DHT22;40360;52.992;6.796;2023-07-02T14:19:55;21.30;98.00
54126;DHT22;40360;52.992;6.796;2023-07-02T14:22:21;21.50;96.70
54126;DHT22;40360;52.992;6.796;2023-07-02T14:24:46;21.30;96.00
54126;DHT22;40360;52.992;6.796;2023-07-02T14:27:15;21.20;96.70
54126;DHT22;40360;52.992;6.796;2023-07-02T14:29:40;21.00;97.00
54126;DHT22;40360;52.992;6.796;2023-07-02T14:32:06;21.30;97.20
54126;DHT22;40360;52.992;6.796;2023-07-02T14:34:33;21.30;97.10
54126;DHT22;40360;52.992;6.796;2023-07-02T14:36:58;21.10;97.20
54126;DHT22;40360;52.992;6.796;2023-07-02T14:39:24;21.00;97.20
54126;DHT22;40360;52.992;6.796;2023-07-02T14:41:50;20.60;97.20
54126;DHT22;40360;52.992;6.796;2023-07-02T14:44:16;20.30;97.80
54126;DHT22;40360;52.992;6.796;2023-07-02T14:46:43;19.80;98.20
54126;DHT22;40360;52.992;6.796;2023-07-02T14:49:09;19.80;98.80
54126;DHT22;40360;52.992;6.796;2023-07-02T14:51:35;19.80;98.90
54126;DHT22;40360;52.992;6.796;2023-07-02T14:54:00;19.80;98.80
54126;DHT22;40360;52.992;6.796;2023-07-02T14:56:31;19.80;98.70
54126;DHT22;40360;52.992;6.796;2023-07-02T14:58:57;19.90;98.30
54126;DHT22;40360;52.992;6.796;2023-07-02T15:01:23;19.70;98.20
54126;DHT22;40360;52.992;6.796;2023-07-02T15:03:48;19.70;98.50
54126;DHT22;40360;52.992;6.796;2023-07-02T15:06:16;19.70;98.70
54126;DHT22;40360;52.992;6.796;2023-07-02T15:08:43;19.70;98.10
54126;DHT22;40360;52.992;6.796;2023-07-02T15:11:12;19.60;98.40
54126;DHT22;40360;52.992;6.796;2023-07-02T15:13:38;19.70;98.80
54126;DHT22;40360;52.992;6.796;2023-07-02T15:16:04;19.90;98.50
54126;DHT22;40360;52.992;6.796;2023-07-02T15:18:30;20.00;98.10
54126;DHT22;40360;52.992;6.796;2023-07-02T15:20:57;19.80;97.60
54126;DHT22;40360;52.992;6.796;2023-07-02T15:23:23;19.60;97.70
54126;DHT22;40360;52.992;6.796;2023-07-02T15:25:54;19.40;97.90
54126;DHT22;40360;52.992;6.796;2023-07-02T15:28:20;19.40;98.20
54126;DHT22;40360;52.992;6.796;2023-07-02T15:30:51;19.30;97.30
54126;DHT22;40360;52.992;6.796;2023-07-02T15:33:16;19.60;97.20
54126;DHT22;40360;52.992;6.796;2023-07-02T15:35:42;20.00;96.70
54126;DHT22;40360;52.992;6.796;2023-07-02T15:38:08;20.40;95.60
54126;DHT22;40360;52.992;6.796;2023-07-02T15:40:33;20.60;95.60
54126;DHT22;40360;52.992;6.796;2023-07-02T15:42:59;20.60;96.20
54126;DHT22;40360;52.992;6.796;2023-07-02T15:45:24;20.70;96.00
54126;DHT22;40360;52.992;6.796;2023-07-02T15:47:50;20.60;96.00